Time;durP1;ratioP1;P1;durP2;ratioP2;P2;SDS_P1;SDS_P2;PMS_P1;PMS_P2;Temp;Humidity;BMP_temperature;BMP_pressure;BME280_temperature;BME280_humidity;BME280_pressure;Samples;Min_cycle;Max_cycle;Signal;HPM_P1;HPM_P2
2021/07/23 00:00:33;;;;;;;8.25;3.20;;;16.80;84.00;;;;;;5013433;28;20046;-67
2021/07/23 00:02:59;;;;;;;7.68;3.58;;;16.90;83.90;;;;;;5013669;28;20384;-67
2021/07/23 00:05:25;;;;;;;6.20;3.80;;;16.90;83.80;;;;;;5013582;28;20057;-67
2021/07/23 00:07:50;;;;;;;6.20;3.38;;;16.90;83.90;;;;;;5016912;28;20033;-67
2021/07/23 00:10:16;;;;;;;6.22;3.92;;;17.00;83.80;;;;;;5033371;28;20083;-67
2021/07/23 00:12:42;;;;;;;7.53;4.07;;;17.00;83.70;;;;;;5031610;28;20022;-67
2021/07/23 00:15:09;;;;;;;7.60;3.55;;;16.90;84.20;;;;;;5030077;28;20025;-67
2021/07/23 00:17:35;;;;;;;4.50;3.53;;;17.00;83.90;;;;;;5031416;28;20056;-67
2021/07/23 00:20:00;;;;;;;5.80;3.70;;;17.00;83.60;;;;;;5032939;28;20487;-67
2021/07/23 00:22:26;;;;;;;7.38;4.00;;;17.00;83.70;;;;;;5032945;28;20037;-67
2021/07/23 00:24:52;;;;;;;10.65;4.63;;;17.10;83.60;;;;;;5032809;28;20043;-67
2021/07/23 00:27:18;;;;;;;6.07;4.10;;;17.10;83.80;;;;;;5029110;28;20026;-67
2021/07/23 00:29:44;;;;;;;5.03;3.45;;;17.10;83.70;;;;;;5032648;28;20033;-67
2021/07/23 00:32:10;;;;;;;7.65;4.00;;;17.10;83.70;;;;;;5032877;28;20033;-67
2021/07/23 00:34:36;;;;;;;7.63;4.18;;;17.10;83.80;;;;;;5026683;28;20033;-67
2021/07/23 00:37:01;;;;;;;8.88;4.03;;;17.10;83.70;;;;;;5025736;28;20033;-67
2021/07/23 00:39:27;;;;;;;6.93;3.63;;;17.20;84.10;;;;;;5016084;28;20099;-67
2021/07/23 00:41:53;;;;;;;6.53;3.90;;;17.20;84.00;;;;;;5014678;28;20117;-68
2021/07/23 00:44:18;;;;;;;5.63;3.92;;;17.20;84.10;;;;;;5032484;28;20042;-67
2021/07/23 00:46:45;;;;;;;8.35;3.80;;;17.20;84.10;;;;;;5032013;28;20474;-67
2021/07/23 00:49:11;;;;;;;6.90;3.72;;;17.20;84.40;;;;;;5028879;28;20116;-67
2021/07/23 00:51:37;;;;;;;6.32;3.47;;;17.20;84.60;;;;;;5021272;28;20026;-67
2021/07/23 00:54:04;;;;;;;4.07;3.67;;;17.20;84.90;;;;;;5012606;28;20629;-67
2021/07/23 00:56:31;;;;;;;6.47;3.83;;;17.30;85.50;;;;;;5011352;28;20087;-67
2021/07/23 00:59:01;;;;;;;5.38;3.67;;;17.30;85.60;;;;;;5011463;28;20025;-68
2021/07/23 01:01:27;;;;;;;5.85;4.07;;;17.30;85.60;;;;;;5012274;28;20133;-68
2021/07/23 01:03:53;;;;;;;5.97;3.53;;;17.30;85.70;;;;;;5012202;28;20405;-67
2021/07/23 01:06:19;;;;;;;4.97;3.53;;;17.30;85.60;;;;;;5011915;28;20117;-67
2021/07/23 01:08:45;;;;;;;5.15;3.40;;;17.20;85.70;;;;;;5023960;28;20108;-67
2021/07/23 01:11:13;;;;;;;5.63;3.60;;;17.30;85.70;;;;;;5031996;28;20108;-67
2021/07/23 01:13:40;;;;;;;6.45;3.35;;;17.30;85.80;;;;;;5032091;28;20116;-68
2021/07/23 01:16:06;;;;;;;6.47;4.10;;;17.30;85.70;;;;;;5031386;28;20083;-67
2021/07/23 01:18:32;;;;;;;5.70;3.28;;;17.30;85.90;;;;;;5031119;28;20037;-68
2021/07/23 01:20:58;;;;;;;7.85;3.80;;;17.20;85.80;;;;;;5031864;28;20041;-68
2021/07/23 01:23:32;;;;;;;4.78;3.63;;;17.20;85.80;;;;;;5031936;28;20087;-67
2021/07/23 01:26:05;;;;;;;5.65;3.33;;;17.20;86.10;;;;;;5027707;28;20025;-67
2021/07/23 01:28:34;;;;;;;6.10;4.00;;;17.20;86.10;;;;;;5030879;28;20030;-67
2021/07/23 01:31:01;;;;;;;6.30;3.47;;;17.30;86.20;;;;;;5031509;28;20026;-67
2021/07/23 01:33:31;;;;;;;5.78;3.90;;;17.30;86.00;;;;;;5030513;28;20053;-67
2021/07/23 01:35:57;;;;;;;5.40;3.58;;;17.30;86.00;;;;;;5020599;28;20029;-68
2021/07/23 01:38:28;;;;;;;6.22;3.83;;;17.30;85.90;;;;;;5023312;28;20025;-67
2021/07/23 01:40:56;;;;;;;8.15;4.03;;;17.30;85.70;;;;;;5011990;28;20040;-67
2021/07/23 01:43:23;;;;;;;6.85;4.63;;;17.30;85.60;;;;;;5025039;28;20124;-67
2021/07/23 01:45:49;;;;;;;5.90;4.10;;;17.20;86.50;;;;;;5030741;28;20033;-68
2021/07/23 01:48:14;;;;;;;5.50;4.13;;;17.10;86.60;;;;;;5027586;28;20079;-67
2021/07/23 01:50:40;;;;;;;7.57;4.40;;;17.10;87.00;;;;;;5026555;28;20033;-67
2021/07/23 01:53:06;;;;;;;7.03;4.25;;;17.10;87.20;;;;;;5011614;28;20132;-68
2021/07/23 01:55:32;;;;;;;6.22;4.40;;;17.10;87.80;;;;;;5011456;28;20022;-68
2021/07/23 01:57:58;;;;;;;7.38;4.22;;;17.10;88.40;;;;;;5010309;28;20034;-67
2021/07/23 02:00:24;;;;;;;5.88;3.72;;;17.10;88.90;;;;;;5011622;28;20088;-67
2021/07/23 02:02:49;;;;;;;8.40;5.40;;;17.10;89.30;;;;;;5011666;28;20038;-66
2021/07/23 02:05:15;;;;;;;6.88;4.43;;;17.10;90.00;;;;;;5011362;28;20491;-67
2021/07/23 02:07:41;;;;;;;10.95;5.00;;;17.10;90.00;;;;;;5013270;28;20483;-68
2021/07/23 02:10:07;;;;;;;7.75;5.00;;;17.00;90.30;;;;;;5030927;28;20510;-67
2021/07/23 02:12:34;;;;;;;6.38;4.57;;;17.00;90.50;;;;;;5030966;28;20183;-67
2021/07/23 02:15:00;;;;;;;8.27;5.10;;;16.90;90.80;;;;;;5030638;28;20061;-67
2021/07/23 02:17:25;;;;;;;7.03;4.95;;;16.90;90.80;;;;;;5029794;28;20065;-68
2021/07/23 02:19:51;;;;;;;9.52;4.93;;;16.90;90.80;;;;;;5030315;28;20107;-67
2021/07/23 02:22:17;;;;;;;11.68;5.78;;;16.90;90.80;;;;;;5031169;28;20037;-67
2021/07/23 02:24:43;;;;;;;9.27;5.10;;;16.90;91.10;;;;;;5030577;28;20445;-67
2021/07/23 02:27:11;;;;;;;10.07;5.20;;;16.90;91.10;;;;;;5026312;28;20113;-67
2021/07/23 02:29:37;;;;;;;9.40;5.93;;;16.90;91.10;;;;;;5030670;28;20029;-67
2021/07/23 02:32:03;;;;;;;8.45;5.38;;;16.90;91.20;;;;;;5029597;28;20064;-67
2021/07/23 02:34:29;;;;;;;10.40;6.20;;;16.80;91.00;;;;;;5025663;28;20056;-67
2021/07/23 02:36:56;;;;;;;10.63;5.57;;;16.90;91.30;;;;;;5023530;28;20033;-67
2021/07/23 02:39:24;;;;;;;7.85;5.10;;;16.80;91.10;;;;;;5014574;28;20041;-68
2021/07/23 02:41:50;;;;;;;11.88;5.82;;;16.80;91.10;;;;;;5011977;28;20100;-67
2021/07/23 02:44:15;;;;;;;11.68;5.90;;;16.90;91.70;;;;;;5030526;28;20542;-67
2021/07/23 02:46:41;;;;;;;7.00;4.93;;;16.80;91.30;;;;;;5029903;28;20537;-67
2021/07/23 02:49:07;;;;;;;10.02;6.20;;;16.80;91.20;;;;;;5027331;28;20112;-68
2021/07/23 02:51:32;;;;;;;10.02;5.65;;;16.80;91.60;;;;;;5021880;28;20411;-67
2021/07/23 02:53:58;;;;;;;10.30;5.30;;;16.80;91.50;;;;;;5009478;28;20026;-66
2021/07/23 02:56:25;;;;;;;8.32;5.40;;;16.80;91.40;;;;;;5010074;28;20065;-68
2021/07/23 02:58:51;;;;;;;9.73;5.10;;;16.80;91.50;;;;;;5010074;28;20041;-67
2021/07/23 03:01:17;;;;;;;10.20;6.32;;;16.80;91.70;;;;;;5010612;28;20411;-67
2021/07/23 03:03:46;;;;;;;12.00;6.15;;;16.80;91.90;;;;;;5010622;28;20030;-67
2021/07/23 03:06:11;;;;;;;9.32;6.18;;;16.80;91.90;;;;;;5009874;28;20034;-67
2021/07/23 03:08:37;;;;;;;8.23;4.82;;;16.80;91.70;;;;;;5008653;28;20041;-67
2021/07/23 03:11:03;;;;;;;10.68;5.60;;;16.70;91.50;;;;;;5011687;28;20068;-68
2021/07/23 03:13:29;;;;;;;8.77;4.90;;;16.70;91.70;;;;;;5010871;28;20026;-68
2021/07/23 03:15:55;;;;;;;7.35;5.05;;;16.80;91.70;;;;;;5025179;28;20022;-67
2021/07/23 03:18:21;;;;;;;7.85;4.93;;;16.80;91.70;;;;;;5009830;28;20129;-67
2021/07/23 03:20:46;;;;;;;8.77;5.07;;;16.70;92.00;;;;;;5012137;28;20144;-67
2021/07/23 03:23:12;;;;;;;11.07;5.15;;;16.70;91.90;;;;;;5014331;28;20407;-67
2021/07/23 03:25:38;;;;;;;9.02;4.93;;;16.70;92.10;;;;;;5010820;28;20038;-67
2021/07/23 03:28:04;;;;;;;6.90;4.32;;;16.70;91.90;;;;;;5013255;28;20464;-68
2021/07/23 03:30:32;;;;;;;6.47;4.70;;;16.70;91.80;;;;;;5014168;28;20041;-67
2021/07/23 03:32:58;;;;;;;8.77;4.25;;;16.70;91.80;;;;;;5013864;28;20032;-67
2021/07/23 03:35:24;;;;;;;8.35;4.40;;;16.70;91.80;;;;;;5019851;28;20034;-67
2021/07/23 03:37:49;;;;;;;8.00;4.65;;;16.70;91.90;;;;;;5029393;28;20034;-67
2021/07/23 03:40:15;;;;;;;8.13;5.00;;;16.80;92.00;;;;;;5013452;28;20041;-67
2021/07/23 03:42:41;;;;;;;7.97;4.57;;;16.80;91.80;;;;;;5021769;28;20043;-67
2021/07/23 03:45:06;;;;;;;7.13;4.10;;;16.80;91.90;;;;;;5033558;28;20037;-67
2021/07/23 03:47:32;;;;;;;6.35;3.95;;;16.80;91.90;;;;;;5032447;28;20029;-68
2021/07/23 03:49:58;;;;;;;7.22;4.53;;;16.80;92.00;;;;;;5030929;28;20034;-67
2021/07/23 03:52:23;;;;;;;6.93;3.95;;;16.80;92.00;;;;;;5015525;28;20038;-68
2021/07/23 03:54:49;;;;;;;9.88;5.35;;;16.80;91.90;;;;;;5013502;28;20538;-67
2021/07/23 03:57:15;;;;;;;6.45;3.88;;;16.80;92.00;;;;;;5012556;28;20139;-67
2021/07/23 03:59:41;;;;;;;7.10;4.80;;;16.80;92.00;;;;;;5013663;28;20056;-67
2021/07/23 04:02:06;;;;;;;7.30;4.07;;;16.80;92.00;;;;;;5013379;28;20033;-66
2021/07/23 04:04:35;;;;;;;8.73;4.72;;;16.80;91.90;;;;;;5013498;28;20025;-66
2021/07/23 04:07:01;;;;;;;6.78;4.35;;;16.80;92.10;;;;;;5013061;28;20033;-66
2021/07/23 04:09:28;;;;;;;10.43;5.40;;;16.80;92.10;;;;;;5031076;28;20071;-67
2021/07/23 04:11:54;;;;;;;8.32;5.07;;;16.90;92.20;;;;;;5033675;28;20032;-66
2021/07/23 04:14:22;;;;;;;7.28;4.03;;;16.90;92.30;;;;;;5033107;28;20479;-66
2021/07/23 04:16:49;;;;;;;7.60;4.55;;;16.80;92.40;;;;;;5032289;28;20065;-67
2021/07/23 04:19:15;;;;;;;6.70;4.60;;;16.80;92.30;;;;;;5032352;28;20079;-67
2021/07/23 04:21:41;;;;;;;7.40;4.32;;;16.80;92.30;;;;;;5030652;28;20064;-67
2021/07/23 04:24:07;;;;;;;8.30;4.57;;;16.90;92.50;;;;;;5032924;28;20057;-66
2021/07/23 04:26:34;;;;;;;8.52;4.22;;;16.90;92.20;;;;;;5030107;28;20033;-67
2021/07/23 04:29:00;;;;;;;9.48;3.92;;;17.00;92.40;;;;;;5032324;28;20060;-67
2021/07/23 04:31:27;;;;;;;11.32;4.68;;;17.00;92.30;;;;;;5032282;28;20033;-67
2021/07/23 04:33:55;;;;;;;7.07;4.65;;;16.90;92.30;;;;;;5029354;28;20022;-67
2021/07/23 04:36:21;;;;;;;10.45;4.93;;;16.90;92.20;;;;;;5023367;28;20025;-67
2021/07/23 04:38:47;;;;;;;10.70;5.30;;;16.90;92.20;;;;;;5021223;28;20026;-67
2021/07/23 04:41:12;;;;;;;9.40;5.18;;;16.90;92.20;;;;;;5012946;28;20083;-67
2021/07/23 04:43:39;;;;;;;15.82;6.13;;;16.80;92.20;;;;;;5028324;28;20123;-67
2021/07/23 04:46:08;;;;;;;6.95;4.63;;;16.80;92.10;;;;;;5031745;28;20034;-66
2021/07/23 04:48:34;;;;;;;7.07;4.70;;;16.80;92.00;;;;;;5029113;28;20171;-67
2021/07/23 04:51:06;;;;;;;7.25;4.53;;;16.90;92.00;;;;;;5026190;28;20373;-67
2021/07/23 04:53:32;;;;;;;9.90;4.53;;;16.90;91.90;;;;;;5012522;28;20034;-67
2021/07/23 04:56:03;;;;;;;9.82;4.47;;;16.90;91.90;;;;;;5011963;28;20160;-67
2021/07/23 04:58:29;;;;;;;5.65;3.53;;;16.80;91.80;;;;;;5011775;28;20033;-66
2021/07/23 05:00:54;;;;;;;6.22;3.80;;;16.80;91.50;;;;;;5012429;28;20038;-67
2021/07/23 05:03:27;;;;;;;6.55;3.70;;;16.80;91.30;;;;;;5012910;28;20025;-67
2021/07/23 05:05:57;;;;;;;5.78;3.75;;;16.90;91.30;;;;;;5011843;28;20443;-67
2021/07/23 05:08:23;;;;;;;6.38;3.53;;;16.90;91.10;;;;;;5020730;28;20041;-66
2021/07/23 05:10:48;;;;;;;5.88;4.07;;;16.90;91.10;;;;;;5032097;28;20467;-67
2021/07/23 05:13:14;;;;;;;8.35;3.58;;;16.90;91.00;;;;;;5032232;28;20029;-67
2021/07/23 05:15:41;;;;;;;6.68;3.88;;;16.80;90.90;;;;;;5031508;28;20026;-67
2021/07/23 05:18:10;;;;;;;6.05;3.67;;;16.80;91.00;;;;;;5031697;28;20033;-67
2021/07/23 05:20:37;;;;;;;5.38;3.70;;;16.90;91.10;;;;;;5032110;28;20038;-68
2021/07/23 05:23:03;;;;;;;6.30;3.90;;;16.90;91.10;;;;;;5031726;28;20062;-67
2021/07/23 05:25:31;;;;;;;6.72;3.42;;;16.90;91.30;;;;;;5027816;28;20612;-67
2021/07/23 05:27:57;;;;;;;6.97;3.20;;;17.00;91.00;;;;;;5030932;28;20632;-67
2021/07/23 05:30:22;;;;;;;4.95;3.20;;;17.00;91.10;;;;;;5032422;28;20045;-67
2021/07/23 05:32:48;;;;;;;3.47;2.75;;;17.00;91.00;;;;;;5031767;28;20024;-67
2021/07/23 05:35:13;;;;;;;4.80;2.85;;;17.00;90.90;;;;;;5014705;28;20065;-66
2021/07/23 05:37:39;;;;;;;5.20;3.28;;;17.10;90.80;;;;;;5010616;28;20117;-67
2021/07/23 05:40:06;;;;;;;5.18;3.05;;;17.10;90.70;;;;;;5011765;28;20026;-67
2021/07/23 05:42:32;;;;;;;5.32;2.97;;;17.10;90.40;;;;;;5021177;28;20033;-67
2021/07/23 05:44:57;;;;;;;4.35;2.78;;;17.10;90.30;;;;;;5031053;28;20045;-67
2021/07/23 05:47:23;;;;;;;3.72;2.80;;;17.10;90.30;;;;;;5030405;28;20035;-67
2021/07/23 05:49:49;;;;;;;6.13;3.22;;;17.20;90.20;;;;;;5028849;28;20092;-67
2021/07/23 05:52:15;;;;;;;5.35;3.13;;;17.10;90.20;;;;;;5031370;28;20433;-67
2021/07/23 05:54:43;;;;;;;4.95;3.10;;;17.10;90.30;;;;;;5029910;28;20070;-66
2021/07/23 05:57:09;;;;;;;5.32;2.88;;;17.10;90.20;;;;;;5030191;28;20033;-66
2021/07/23 05:59:34;;;;;;;4.75;2.90;;;17.10;90.30;;;;;;5031690;28;20413;-67
2021/07/23 06:02:00;;;;;;;5.63;2.72;;;17.10;90.30;;;;;;5028580;28;20059;-67
2021/07/23 06:04:26;;;;;;;6.00;3.38;;;17.10;90.20;;;;;;5026783;28;20025;-67
2021/07/23 06:06:51;;;;;;;3.83;2.95;;;17.10;90.40;;;;;;5026024;28;20049;-67
2021/07/23 06:09:17;;;;;;;4.93;3.00;;;17.10;90.20;;;;;;5020506;28;20030;-67
2021/07/23 06:11:43;;;;;;;4.13;2.67;;;17.10;90.10;;;;;;5028029;28;20566;-67
2021/07/23 06:14:09;;;;;;;4.47;2.95;;;17.10;90.20;;;;;;5019580;28;20413;-67
2021/07/23 06:16:35;;;;;;;5.47;3.20;;;17.10;90.10;;;;;;5025627;28;20658;-67
2021/07/23 06:19:01;;;;;;;7.85;2.85;;;17.10;90.10;;;;;;5026101;28;20117;-68
2021/07/23 06:21:27;;;;;;;4.57;2.65;;;17.20;90.10;;;;;;5018273;28;20032;-67
2021/07/23 06:23:53;;;;;;;5.47;2.78;;;17.10;90.10;;;;;;5023289;28;20041;-67
2021/07/23 06:26:19;;;;;;;4.50;2.35;;;17.10;90.00;;;;;;5013005;28;20033;-67
2021/07/23 06:28:45;;;;;;;4.18;2.50;;;17.10;90.00;;;;;;5009061;28;20037;-67
2021/07/23 06:31:14;;;;;;;4.80;2.33;;;17.20;89.70;;;;;;5030747;28;20021;-67
2021/07/23 06:33:40;;;;;;;5.03;2.55;;;17.10;89.50;;;;;;5028163;28;20104;-67
2021/07/23 06:36:06;;;;;;;4.10;2.88;;;17.20;89.40;;;;;;5020036;28;20482;-67
2021/07/23 06:38:32;;;;;;;4.88;2.33;;;17.20;89.40;;;;;;5025287;28;20041;-67
2021/07/23 06:40:58;;;;;;;4.72;2.70;;;17.20;89.20;;;;;;5023618;28;20097;-66
2021/07/23 06:43:24;;;;;;;5.78;2.70;;;17.30;89.10;;;;;;5015710;28;20222;-67
2021/07/23 06:45:54;;;;;;;4.13;2.53;;;17.30;89.00;;;;;;5010201;28;20123;-67
2021/07/23 06:48:20;;;;;;;4.13;2.80;;;17.30;89.00;;;;;;4989805;28;20034;-66
2021/07/23 06:50:46;;;;;;;5.07;3.45;;;17.40;89.00;;;;;;4990904;28;20069;-66
2021/07/23 06:53:11;;;;;;;4.78;3.17;;;17.40;88.60;;;;;;4991148;28;20037;-67
2021/07/23 06:55:37;;;;;;;6.40;3.05;;;17.40;88.70;;;;;;5012806;28;20463;-68
2021/07/23 06:58:03;;;;;;;4.68;3.40;;;17.40;88.60;;;;;;5033981;28;20037;-67
2021/07/23 07:00:28;;;;;;;7.78;3.50;;;17.40;88.60;;;;;;5034635;28;20076;-67
2021/07/23 07:02:54;;;;;;;4.47;2.90;;;17.50;88.30;;;;;;5034565;28;20033;-68
2021/07/23 07:05:22;;;;;;;4.03;2.70;;;17.50;88.20;;;;;;5034359;28;20037;-67
2021/07/23 07:07:47;;;;;;;4.60;3.25;;;17.50;88.40;;;;;;5033927;28;20029;-67
2021/07/23 07:10:13;;;;;;;5.78;3.47;;;17.50;88.60;;;;;;5034512;28;20037;-67
2021/07/23 07:12:39;;;;;;;4.72;3.28;;;17.50;88.50;;;;;;5026889;28;20030;-67
2021/07/23 07:15:05;;;;;;;4.25;2.85;;;17.50;88.30;;;;;;5028689;28;20021;-67
2021/07/23 07:17:31;;;;;;;4.53;3.20;;;17.50;88.20;;;;;;5016508;28;20116;-67
2021/07/23 07:19:59;;;;;;;5.30;2.97;;;17.60;88.10;;;;;;5015681;28;20101;-67
2021/07/23 07:22:25;;;;;;;5.28;3.60;;;17.60;88.00;;;;;;5033976;28;20037;-67
2021/07/23 07:24:51;;;;;;;6.28;3.20;;;17.70;87.70;;;;;;5029746;28;20037;-67
2021/07/23 07:27:17;;;;;;;6.88;3.72;;;17.60;87.40;;;;;;5013873;28;20026;-67
2021/07/23 07:29:43;;;;;;;4.60;3.42;;;17.60;87.30;;;;;;5023518;28;20048;-67
2021/07/23 07:32:09;;;;;;;4.25;3.08;;;17.60;87.50;;;;;;5015447;28;20407;-67
2021/07/23 07:34:38;;;;;;;5.40;3.63;;;17.70;87.60;;;;;;5023888;28;20033;-67
2021/07/23 07:37:05;;;;;;;3.92;3.10;;;17.60;87.60;;;;;;5027544;28;20387;-67
2021/07/23 07:39:31;;;;;;;4.65;3.10;;;17.70;87.80;;;;;;5017143;28;20100;-67
2021/07/23 07:41:57;;;;;;;4.55;3.45;;;17.70;88.10;;;;;;5019578;28;20379;-67
2021/07/23 07:44:22;;;;;;;6.05;3.65;;;17.70;88.00;;;;;;5028445;28;20030;-67
2021/07/23 07:46:48;;;;;;;9.02;4.10;;;17.70;88.00;;;;;;5015880;28;20452;-67
2021/07/23 07:49:16;;;;;;;6.10;3.80;;;17.70;88.10;;;;;;5012450;28;20472;-67
2021/07/23 07:51:42;;;;;;;11.02;3.45;;;17.70;88.30;;;;;;5033630;28;20044;-67
2021/07/23 07:54:10;;;;;;;4.45;3.03;;;17.70;88.20;;;;;;5033562;28;20471;-67
2021/07/23 07:56:36;;;;;;;5.35;3.20;;;17.70;88.10;;;;;;5032877;28;20399;-67
2021/07/23 07:59:02;;;;;;;5.88;3.92;;;17.80;88.10;;;;;;5022953;28;20029;-67
2021/07/23 08:01:27;;;;;;;5.43;3.75;;;17.70;88.10;;;;;;5028273;28;20136;-67
2021/07/23 08:03:53;;;;;;;6.57;3.75;;;17.70;88.10;;;;;;5015913;28;20041;-67
2021/07/23 08:06:24;;;;;;;6.28;3.55;;;17.80;87.90;;;;;;5014822;28;20086;-67
2021/07/23 08:08:51;;;;;;;5.03;3.65;;;17.70;88.00;;;;;;5031162;28;20115;-67
2021/07/23 08:11:17;;;;;;;4.57;3.00;;;17.80;88.10;;;;;;5031885;28;20103;-67
2021/07/23 08:13:43;;;;;;;7.60;3.70;;;17.80;88.10;;;;;;5033149;28;20037;-67
2021/07/23 08:16:11;;;;;;;8.20;3.40;;;17.80;87.90;;;;;;5032459;28;20349;-67
2021/07/23 08:18:37;;;;;;;7.68;3.67;;;17.90;87.70;;;;;;5031297;28;20041;-67
2021/07/23 08:21:04;;;;;;;8.85;3.88;;;17.90;87.40;;;;;;5033067;28;20040;-67
2021/07/23 08:23:30;;;;;;;6.05;3.80;;;17.90;86.80;;;;;;5032928;28;20033;-67
2021/07/23 08:25:56;;;;;;;4.85;3.58;;;18.00;87.10;;;;;;5029771;28;20034;-67
2021/07/23 08:28:21;;;;;;;5.22;3.45;;;18.00;87.10;;;;;;5032300;28;20029;-67
2021/07/23 08:30:48;;;;;;;5.25;3.60;;;18.10;86.90;;;;;;5032911;28;20490;-67
2021/07/23 08:33:14;;;;;;;4.65;3.15;;;18.10;86.70;;;;;;5025913;28;20492;-67
2021/07/23 08:35:41;;;;;;;5.00;2.90;;;18.10;86.30;;;;;;5020546;28;20032;-67
2021/07/23 08:38:07;;;;;;;4.93;2.97;;;18.10;86.40;;;;;;5026674;28;20450;-67
2021/07/23 08:40:32;;;;;;;6.40;3.50;;;18.20;86.60;;;;;;5012750;28;20033;-67
2021/07/23 08:43:03;;;;;;;4.72;3.30;;;18.20;86.20;;;;;;5022993;28;20041;-67
2021/07/23 08:45:29;;;;;;;7.22;3.95;;;18.20;86.10;;;;;;5031754;28;20029;-67
2021/07/23 08:47:55;;;;;;;6.00;3.67;;;18.20;86.20;;;;;;5031846;28;20060;-67
2021/07/23 08:50:23;;;;;;;5.38;3.03;;;18.20;86.60;;;;;;5028562;28;20083;-67
2021/07/23 08:52:54;;;;;;;4.55;3.00;;;18.30;86.60;;;;;;5012810;28;20060;-67
2021/07/23 08:55:20;;;;;;;;;;;18.30;86.70;;;;;;5012650;28;20450;-67
2021/07/23 08:57:47;;;;;;;5.82;3.90;;;18.30;86.10;;;;;;5009123;28;19936;-67
2021/07/23 09:00:18;;;;;;;6.22;3.85;;;18.30;86.20;;;;;;5012642;28;20034;-67
2021/07/23 09:02:57;;;;;;;6.22;4.00;;;18.30;86.40;;;;;;5012702;28;20034;-67
2021/07/23 09:05:35;;;;;;;5.03;3.47;;;18.40;86.60;;;;;;5012033;28;20480;-67
2021/07/23 09:08:07;;;;;;;4.82;3.50;;;18.40;86.40;;;;;;5018058;28;20050;-67
2021/07/23 09:10:33;;;;;;;5.68;4.00;;;18.40;86.50;;;;;;5032169;28;20072;-67
2021/07/23 09:13:03;;;;;;;6.55;4.20;;;18.50;86.30;;;;;;5023842;28;20042;-67
2021/07/23 09:15:39;;;;;;;5.75;3.95;;;18.40;85.50;;;;;;5027261;28;20112;-67
2021/07/23 09:18:18;;;;;;;6.20;3.65;;;18.30;85.60;;;;;;5011329;28;20065;-67
2021/07/23 09:21:02;;;;;;;7.53;4.20;;;18.40;86.10;;;;;;5018157;28;20076;-67
2021/07/23 09:23:34;;;;;;;6.00;4.15;;;18.50;85.90;;;;;;5031665;28;20447;-67
2021/07/23 09:26:02;;;;;;;;;;;18.60;86.00;;;;;;5029336;28;20037;-67
2021/07/23 09:28:38;;;;;;;6.75;4.15;;;18.70;85.60;;;;;;5031138;28;19983;-67
2021/07/23 09:31:06;;;;;;;6.68;4.72;;;18.70;85.20;;;;;;4992412;28;20145;-67
2021/07/23 09:33:32;;;;;;;7.60;5.32;;;18.80;85.00;;;;;;5016252;28;20045;-68
2021/07/23 09:36:02;;;;;;;8.45;5.00;;;19.00;84.60;;;;;;5021340;28;20025;-67
2021/07/23 09:38:38;;;;;;;7.30;5.63;;;19.10;84.00;;;;;;5019698;28;20036;-67
2021/07/23 09:41:05;;;;;;;6.97;5.18;;;19.20;83.80;;;;;;5031646;28;20037;-67
2021/07/23 09:43:36;;;;;;;6.30;5.00;;;19.30;82.90;;;;;;5016705;28;20033;-67
2021/07/23 09:46:24;;;;;;;7.68;5.22;;;19.30;82.60;;;;;;5011388;28;20026;-67
2021/07/23 09:48:52;;;;;;;5.75;4.78;;;19.30;82.40;;;;;;5007125;28;20034;-67
2021/07/23 09:51:21;;;;;;;8.27;4.93;;;19.30;82.70;;;;;;5020724;28;20026;-67
2021/07/23 09:53:47;;;;;;;7.45;4.90;;;19.30;82.70;;;;;;5031463;28;20055;-67
2021/07/23 09:56:13;;;;;;;7.82;4.72;;;19.40;82.50;;;;;;5030555;28;20057;-67
2021/07/23 09:58:44;;;;;;;6.85;5.05;;;19.30;82.20;;;;;;5030709;28;20064;-67
2021/07/23 10:01:18;;;;;;;6.13;4.47;;;19.40;82.30;;;;;;5031117;28;20037;-67
2021/07/23 10:03:47;;;;;;;7.18;4.63;;;19.40;82.00;;;;;;5031182;28;20306;-67
2021/07/23 10:06:36;;;;;;;4.65;3.45;;;19.50;81.90;;;;;;5030607;28;20036;-67
2021/07/23 10:09:11;;;;;;;4.57;3.85;;;19.40;80.70;;;;;;5015719;28;20153;-67
2021/07/23 10:11:43;;;;;;;7.68;3.75;;;19.50;80.50;;;;;;5013091;28;20033;-67
2021/07/23 10:14:11;;;;;;;5.50;3.90;;;19.50;80.70;;;;;;5018127;28;20072;-67
2021/07/23 10:16:40;;;;;;;4.90;3.83;;;19.40;80.40;;;;;;5028066;28;20034;-67
2021/07/23 10:19:07;;;;;;;4.63;3.97;;;19.40;80.40;;;;;;5030290;28;20054;-67
2021/07/23 10:21:34;;;;;;;5.43;3.75;;;19.50;80.60;;;;;;5031043;28;20160;-67
2021/07/23 10:24:01;;;;;;;7.05;4.03;;;19.50;80.80;;;;;;5030857;28;20041;-67
2021/07/23 10:26:31;;;;;;;4.75;3.53;;;19.40;81.00;;;;;;5027480;28;20100;-67
2021/07/23 10:28:59;;;;;;;5.88;4.38;;;19.40;81.00;;;;;;5023213;28;20120;-67
2021/07/23 10:31:25;;;;;;;5.78;3.38;;;19.40;80.90;;;;;;5010646;28;20076;-67
2021/07/23 10:33:52;;;;;;;6.30;3.50;;;19.40;80.80;;;;;;5017169;28;20038;-67
2021/07/23 10:36:27;;;;;;;5.65;3.60;;;19.40;80.70;;;;;;5021359;28;20033;-67
2021/07/23 10:39:05;;;;;;;3.92;3.30;;;19.50;80.90;;;;;;5018427;28;20034;-67
2021/07/23 10:41:50;;;;;;;3.40;2.83;;;19.50;80.90;;;;;;5011211;28;20030;-67
2021/07/23 10:44:28;;;;;;;5.15;3.75;;;19.40;80.70;;;;;;4979970;28;20046;-67
2021/07/23 10:46:58;;;;;;;6.05;3.92;;;19.40;80.80;;;;;;4990702;28;20530;-67
2021/07/23 10:49:27;;;;;;;5.67;3.67;;;19.40;81.20;;;;;;4988030;28;20038;-67
2021/07/23 10:51:53;;;;;;;5.22;4.00;;;19.40;81.20;;;;;;5018185;28;20315;-67
2021/07/23 10:54:21;;;;;;;6.40;3.63;;;19.50;81.10;;;;;;5031331;28;20029;-67
2021/07/23 10:57:10;;;;;;;4.50;3.25;;;19.70;80.80;;;;;;5029770;28;20025;-67
2021/07/23 10:59:39;;;;;;;5.57;3.55;;;19.90;79.80;;;;;;5030437;28;20475;-67
2021/07/23 11:02:10;;;;;;;4.25;3.45;;;20.00;79.90;;;;;;5030548;28;20037;-67
2021/07/23 11:04:39;;;;;;;5.75;3.72;;;20.10;79.40;;;;;;5030646;28;20368;-67
2021/07/23 11:07:06;;;;;;;5.18;3.53;;;20.10;79.00;;;;;;5029301;28;20164;-67
2021/07/23 11:09:34;;;;;;;6.15;3.83;;;20.30;77.30;;;;;;5011927;28;20041;-67
2021/07/23 11:12:16;;;;;;;5.22;3.83;;;20.40;77.30;;;;;;5013454;28;20029;-67
2021/07/23 11:14:42;;;;;;;4.60;3.78;;;20.30;77.80;;;;;;5021765;28;20025;-67
2021/07/23 11:17:10;;;;;;;5.00;3.70;;;20.30;78.60;;;;;;5018103;28;20099;-67
2021/07/23 11:19:36;;;;;;;5.03;3.67;;;20.30;77.60;;;;;;5010192;28;20120;-67
2021/07/23 11:22:02;;;;;;;5.78;3.78;;;20.20;78.30;;;;;;5027408;28;20167;-67
2021/07/23 11:24:35;;;;;;;6.03;3.97;;;20.00;78.30;;;;;;5030369;28;20021;-67
2021/07/23 11:27:02;;;;;;;7.53;3.70;;;20.10;79.10;;;;;;5026495;28;20038;-67
2021/07/23 11:29:38;;;;;;;4.80;3.22;;;20.10;79.30;;;;;;5022257;28;20026;-67
2021/07/23 11:32:09;;;;;;;5.53;4.20;;;20.00;79.70;;;;;;5011725;28;20563;-67
2021/07/23 11:34:38;;;;;;;5.60;3.10;;;19.90;79.90;;;;;;5024945;28;20755;-66
2021/07/23 11:37:14;;;;;;;5.25;3.33;;;19.90;80.10;;;;;;5019824;28;20029;-67
2021/07/23 11:39:53;;;;;;;5.78;3.58;;;19.80;80.40;;;;;;5010325;28;20349;-67
2021/07/23 11:42:20;;;;;;;4.78;3.30;;;19.80;80.40;;;;;;5013208;28;20034;-67
2021/07/23 11:44:57;;;;;;;5.50;3.78;;;19.70;80.60;;;;;;5013391;28;20045;-67
2021/07/23 11:47:38;;;;;;;6.18;3.25;;;19.60;81.00;;;;;;5013540;28;20058;-67
2021/07/23 11:50:07;;;;;;;6.18;3.88;;;19.60;81.20;;;;;;5022689;28;20104;-67
2021/07/23 11:52:33;;;;;;;5.50;3.65;;;19.50;81.20;;;;;;5033532;28;20421;-67
2021/07/23 11:55:02;;;;;;;5.50;3.33;;;19.50;81.20;;;;;;5032933;28;20037;-67
2021/07/23 11:57:29;;;;;;;5.70;3.35;;;19.50;80.90;;;;;;5032905;28;20434;-67
2021/07/23 11:59:55;;;;;;;5.95;3.95;;;19.50;81.30;;;;;;5033525;28;20068;-67
2021/07/23 12:02:28;;;;;;;6.85;3.50;;;19.50;81.50;;;;;;5033325;28;20037;-67
2021/07/23 12:05:11;;;;;;;4.82;3.50;;;19.60;81.60;;;;;;5031674;28;20025;-67
2021/07/23 12:07:38;;;;;;;5.13;3.70;;;19.70;81.60;;;;;;5017330;28;20092;-67
2021/07/23 12:10:09;;;;;;;5.07;3.47;;;19.80;81.20;;;;;;5010953;28;20101;-67
2021/07/23 12:12:36;;;;;;;4.55;3.10;;;19.90;81.00;;;;;;5019209;28;20077;-67
2021/07/23 12:15:09;;;;;;;4.45;3.33;;;20.00;80.90;;;;;;5032119;28;20114;-67
2021/07/23 12:17:36;;;;;;;4.85;3.58;;;20.00;80.90;;;;;;5032763;28;20071;-67
2021/07/23 12:20:05;;;;;;;4.68;3.30;;;20.10;80.90;;;;;;5030778;28;20537;-67
2021/07/23 12:22:31;;;;;;;4.85;3.78;;;20.10;80.80;;;;;;5013466;28;20417;-67
2021/07/23 12:24:57;;;;;;;6.32;3.97;;;20.10;80.70;;;;;;5012573;28;20041;-67
2021/07/23 12:27:23;;;;;;;5.32;3.67;;;20.10;80.70;;;;;;5009966;28;20068;-67
2021/07/23 12:29:52;;;;;;;5.97;3.65;;;20.20;80.60;;;;;;5025643;28;20025;-67
2021/07/23 12:32:23;;;;;;;4.90;3.45;;;20.20;80.10;;;;;;5029851;28;20029;-67
2021/07/23 12:34:56;;;;;;;4.15;3.45;;;20.20;80.20;;;;;;5028606;28;20044;-67
2021/07/23 12:37:23;;;;;;;6.63;4.07;;;20.20;80.40;;;;;;5013888;28;20442;-68
2021/07/23 12:39:56;;;;;;;5.43;3.72;;;20.20;80.10;;;;;;5032095;28;20078;-67
2021/07/23 12:42:23;;;;;;;6.60;4.00;;;20.20;80.40;;;;;;5027195;28;20381;-67
2021/07/23 12:44:49;;;;;;;4.82;3.70;;;20.20;80.60;;;;;;5012196;28;20049;-67
2021/07/23 12:47:16;;;;;;;6.07;3.95;;;20.20;80.80;;;;;;5012026;28;20092;-67